EWG3CB EDDS-LEPA
Flight info
| Callsign | EWG3CB |
|---|---|
| Flight time | N/A |
| Altitude | 39000 |
| Route | ROTWE5B/25 ROTWE Y126 TUBLO N850 NATOR DCT LUTIX DCT BENOT DCT NEMOS DCT GEVEA DCT INCUS DCT BALSI DCT RETNO DCT TUPOX DCT MTG DCT DIVKO DCT VATIR DCT PIVUS DCT BODEQ DCT VERSO L129 LUNIK |
| Aircraft | A20N/M-SDE2E3FGHIRWXY/LB1 |
Departure
| Time | 2026-05-05 15:47 |
|---|---|
| Airport | Stuttgart Airport (EDDS) |
Arrival
| Time | N/A |
|---|---|
| Airport | Palma de Mallorca Airport (LEPA) |
| Time | Latitude | Longitude | Altitude | Speed | Heading |
|---|---|---|---|---|---|
| 2026-05-05 15:06 | 48.68761 | 9.19468 | 1289 ft | 0 kts | 164° |
| 2026-05-05 15:33 | 48.68752 | 9.19472 | 1288 ft | 4 kts | 164° |
| 2026-05-05 15:33 | 48.68700 | 9.19500 | 1287 ft | 8 kts | 143° |
| 2026-05-05 15:33 | 48.68692 | 9.19583 | 1285 ft | 13 kts | 76° |
| 2026-05-05 15:34 | 48.68730 | 9.19704 | 1285 ft | 13 kts | 74° |
| 2026-05-05 15:34 | 48.68754 | 9.19831 | 1286 ft | 12 kts | 73° |
| 2026-05-05 15:34 | 48.68790 | 9.19935 | 1287 ft | 11 kts | 51° |
| 2026-05-05 15:34 | 48.68833 | 9.20019 | 1288 ft | 9 kts | 59° |
| 2026-05-05 15:35 | 48.68851 | 9.20107 | 1286 ft | 8 kts | 75° |
| 2026-05-05 15:35 | 48.68856 | 9.20135 | 1285 ft | 0 kts | 75° |
| 2026-05-05 15:36 | 48.68856 | 9.20136 | 1285 ft | 0 kts | 75° |
| 2026-05-05 15:36 | 48.68859 | 9.20153 | 1285 ft | 3 kts | 75° |
| 2026-05-05 15:36 | 48.68869 | 9.20206 | 1285 ft | 7 kts | 73° |
| 2026-05-05 15:36 | 48.68885 | 9.20285 | 1286 ft | 8 kts | 73° |
| 2026-05-05 15:37 | 48.68901 | 9.20366 | 1285 ft | 8 kts | 73° |
| 2026-05-05 15:37 | 48.68914 | 9.20437 | 1286 ft | 7 kts | 75° |
| 2026-05-05 15:37 | 48.68926 | 9.20501 | 1286 ft | 6 kts | 73° |
| 2026-05-05 15:37 | 48.68939 | 9.20560 | 1286 ft | 6 kts | 72° |
| 2026-05-05 15:38 | 48.68951 | 9.20623 | 1286 ft | 6 kts | 74° |
| 2026-05-05 15:38 | 48.68962 | 9.20691 | 1289 ft | 7 kts | 76° |
| 2026-05-05 15:38 | 48.68977 | 9.20770 | 1287 ft | 8 kts | 74° |
| 2026-05-05 15:38 | 48.68993 | 9.20858 | 1289 ft | 9 kts | 74° |
| 2026-05-05 15:39 | 48.69011 | 9.20954 | 1286 ft | 10 kts | 74° |
| 2026-05-05 15:39 | 48.69031 | 9.21059 | 1286 ft | 11 kts | 74° |
| 2026-05-05 15:39 | 48.69053 | 9.21173 | 1288 ft | 12 kts | 74° |
| 2026-05-05 15:39 | 48.69076 | 9.21294 | 1287 ft | 12 kts | 74° |
| 2026-05-05 15:40 | 48.69100 | 9.21422 | 1287 ft | 13 kts | 74° |
| 2026-05-05 15:40 | 48.69125 | 9.21554 | 1287 ft | 13 kts | 73° |
| 2026-05-05 15:40 | 48.69152 | 9.21689 | 1287 ft | 14 kts | 73° |
| 2026-05-05 15:40 | 48.69162 | 9.21735 | 1286 ft | 14 kts | 73° |
| 2026-05-05 15:41 | 48.69220 | 9.22043 | 1288 ft | 14 kts | 74° |
| 2026-05-05 15:41 | 48.69278 | 9.22362 | 1285 ft | 15 kts | 74° |
| 2026-05-05 15:42 | 48.69306 | 9.22509 | 1285 ft | 15 kts | 73° |
| 2026-05-05 15:42 | 48.69335 | 9.22660 | 1286 ft | 15 kts | 73° |
| 2026-05-05 15:43 | 48.69483 | 9.23437 | 1288 ft | 15 kts | 74° |
| 2026-05-05 15:43 | 48.69511 | 9.23583 | 1286 ft | 15 kts | 74° |
| 2026-05-05 15:44 | 48.69541 | 9.23740 | 1288 ft | 16 kts | 73° |
| 2026-05-05 15:44 | 48.69572 | 9.23899 | 1288 ft | 16 kts | 74° |
| 2026-05-05 15:44 | 48.69602 | 9.24057 | 1286 ft | 16 kts | 74° |
| 2026-05-05 15:44 | 48.69596 | 9.24214 | 1287 ft | 15 kts | 120° |
| 2026-05-05 15:45 | 48.69520 | 9.24304 | 1288 ft | 14 kts | 162° |
| 2026-05-05 15:45 | 48.69425 | 9.24342 | 1286 ft | 12 kts | 176° |
| 2026-05-05 15:45 | 48.69383 | 9.24277 | 1288 ft | 0 kts | 253° |
| 2026-05-05 15:46 | 48.69381 | 9.24265 | 1289 ft | 12 kts | 253° |
| 2026-05-05 15:46 | 48.69290 | 9.23779 | 1288 ft | 82 kts | 254° |
| 2026-05-05 15:46 | 48.69077 | 9.22658 | 1285 ft | 137 kts | 254° |
| 2026-05-05 15:46 | 48.68777 | 9.21063 | 1431 ft | 166 kts | 255° |
| 2026-05-05 15:47 | 48.68482 | 9.19398 | 2083 ft | 166 kts | 256° |
| 2026-05-05 15:47 | 48.68179 | 9.17682 | 2707 ft | 170 kts | 255° |
| 2026-05-05 15:47 | 48.67871 | 9.15933 | 3323 ft | 172 kts | 255° |
| 2026-05-05 15:47 | 48.67564 | 9.14205 | 3944 ft | 176 kts | 253° |
| 2026-05-05 15:48 | 48.67214 | 9.12322 | 4402 ft | 195 kts | 252° |
| 2026-05-05 15:48 | 48.66808 | 9.10230 | 4817 ft | 221 kts | 252° |
| 2026-05-05 15:48 | 48.66335 | 9.07830 | 4991 ft | 253 kts | 252° |
| 2026-05-05 15:48 | 48.65824 | 9.05231 | 5006 ft | 259 kts | 252° |
| 2026-05-05 15:49 | 48.65315 | 9.02621 | 5003 ft | 258 kts | 252° |
| 2026-05-05 15:49 | 48.64805 | 9.00008 | 4991 ft | 259 kts | 252° |
| 2026-05-05 15:49 | 48.64290 | 8.97379 | 5260 ft | 261 kts | 252° |
| 2026-05-05 15:49 | 48.63775 | 8.94748 | 6152 ft | 258 kts | 252° |
| 2026-05-05 15:50 | 48.63267 | 8.92153 | 7210 ft | 258 kts | 251° |
| 2026-05-05 15:50 | 48.62435 | 8.89783 | 8077 ft | 259 kts | 227° |
| 2026-05-05 15:50 | 48.61110 | 8.87943 | 8958 ft | 263 kts | 220° |
| 2026-05-05 15:50 | 48.59652 | 8.86188 | 9887 ft | 266 kts | 219° |
| 2026-05-05 15:51 | 48.58160 | 8.84406 | 10416 ft | 284 kts | 219° |
| 2026-05-05 15:51 | 48.56570 | 8.82451 | 10694 ft | 307 kts | 220° |
| 2026-05-05 15:51 | 48.54890 | 8.80333 | 11193 ft | 320 kts | 221° |
| 2026-05-05 15:51 | 48.53179 | 8.78147 | 11959 ft | 324 kts | 221° |
| 2026-05-05 15:52 | 48.51449 | 8.75928 | 12731 ft | 329 kts | 221° |
| 2026-05-05 15:52 | 48.49692 | 8.73674 | 13497 ft | 334 kts | 221° |
| 2026-05-05 15:52 | 48.47910 | 8.71389 | 14181 ft | 339 kts | 221° |
| 2026-05-05 15:52 | 48.46136 | 8.69117 | 14861 ft | 342 kts | 221° |
| 2026-05-05 15:53 | 48.44288 | 8.66753 | 15545 ft | 347 kts | 220° |
| 2026-05-05 15:53 | 48.42441 | 8.64392 | 16213 ft | 351 kts | 220° |
| 2026-05-05 15:53 | 48.40659 | 8.62118 | 16845 ft | 355 kts | 220° |
| 2026-05-05 15:53 | 48.38749 | 8.59683 | 17482 ft | 359 kts | 219° |
| 2026-05-05 15:54 | 48.36805 | 8.57206 | 18128 ft | 364 kts | 219° |
| 2026-05-05 15:54 | 48.34864 | 8.54735 | 18702 ft | 367 kts | 219° |
| 2026-05-05 15:54 | 48.32934 | 8.52282 | 19281 ft | 370 kts | 219° |
| 2026-05-05 15:54 | 48.30960 | 8.49775 | 19846 ft | 373 kts | 219° |
| 2026-05-05 15:55 | 48.28971 | 8.47254 | 20434 ft | 376 kts | 219° |
| 2026-05-05 15:55 | 48.26957 | 8.44702 | 21004 ft | 380 kts | 219° |
| 2026-05-05 15:55 | 48.24933 | 8.42140 | 21556 ft | 383 kts | 219° |
| 2026-05-05 15:55 | 48.22888 | 8.39555 | 22120 ft | 386 kts | 219° |
| 2026-05-05 15:56 | 48.20828 | 8.36954 | 22672 ft | 389 kts | 219° |
| 2026-05-05 15:56 | 48.18750 | 8.34333 | 23216 ft | 393 kts | 219° |
| 2026-05-05 15:56 | 48.16605 | 8.31766 | 23692 ft | 396 kts | 214° |
| 2026-05-05 15:56 | 48.14307 | 8.29511 | 24177 ft | 397 kts | 212° |
| 2026-05-05 15:57 | 48.11971 | 8.27268 | 24643 ft | 399 kts | 212° |
| 2026-05-05 15:57 | 48.09633 | 8.25014 | 25077 ft | 402 kts | 212° |
| 2026-05-05 15:57 | 48.07273 | 8.22736 | 25547 ft | 404 kts | 212° |
| 2026-05-05 15:57 | 48.04908 | 8.20455 | 25992 ft | 406 kts | 212° |
| 2026-05-05 15:58 | 48.02530 | 8.18166 | 26412 ft | 408 kts | 212° |
| 2026-05-05 15:58 | 48.00136 | 8.15864 | 26831 ft | 410 kts | 212° |
| 2026-05-05 15:58 | 47.97725 | 8.13549 | 27223 ft | 413 kts | 212° |
| 2026-05-05 15:58 | 47.95305 | 8.11228 | 27609 ft | 415 kts | 212° |
| 2026-05-05 15:59 | 47.92871 | 8.08897 | 28001 ft | 417 kts | 212° |
| 2026-05-05 15:59 | 47.90421 | 8.06553 | 28368 ft | 419 kts | 212° |
| 2026-05-05 15:59 | 47.87960 | 8.04201 | 28729 ft | 421 kts | 212° |
| 2026-05-05 15:59 | 47.85490 | 8.01843 | 29080 ft | 423 kts | 212° |
| 2026-05-05 16:00 | 47.83002 | 7.99471 | 29414 ft | 426 kts | 212° |
| 2026-05-05 16:00 | 47.80531 | 7.97118 | 29743 ft | 428 kts | 212° |
| 2026-05-05 16:00 | 47.78020 | 7.94729 | 30035 ft | 430 kts | 212° |
| 2026-05-05 16:00 | 47.75495 | 7.92330 | 30374 ft | 431 kts | 212° |
| 2026-05-05 16:01 | 47.72969 | 7.89933 | 30670 ft | 433 kts | 212° |
| 2026-05-05 16:01 | 47.70426 | 7.87522 | 31016 ft | 433 kts | 212° |
| 2026-05-05 16:01 | 47.67888 | 7.85119 | 31435 ft | 431 kts | 212° |
| 2026-05-05 16:01 | 47.65363 | 7.82730 | 31858 ft | 430 kts | 212° |
| 2026-05-05 16:02 | 47.62853 | 7.80360 | 32269 ft | 428 kts | 212° |
| 2026-05-05 16:02 | 47.60343 | 7.77991 | 32680 ft | 426 kts | 212° |
| 2026-05-05 16:02 | 47.57842 | 7.75635 | 33059 ft | 425 kts | 212° |
| 2026-05-05 16:02 | 47.55354 | 7.73294 | 33442 ft | 423 kts | 212° |
| 2026-05-05 16:03 | 47.52870 | 7.70959 | 33818 ft | 422 kts | 212° |
| 2026-05-05 16:03 | 47.50394 | 7.68634 | 34101 ft | 421 kts | 212° |
| 2026-05-05 16:03 | 47.47923 | 7.66317 | 34341 ft | 421 kts | 212° |
| 2026-05-05 16:03 | 47.45458 | 7.64007 | 34584 ft | 420 kts | 212° |
| 2026-05-05 16:04 | 47.42985 | 7.61693 | 34841 ft | 420 kts | 212° |
| 2026-05-05 16:04 | 47.40519 | 7.59387 | 35088 ft | 419 kts | 212° |
| 2026-05-05 16:04 | 47.38057 | 7.57088 | 35322 ft | 419 kts | 212° |
| 2026-05-05 16:04 | 47.35592 | 7.54788 | 35572 ft | 419 kts | 212° |
| 2026-05-05 16:05 | 47.33121 | 7.52486 | 35799 ft | 419 kts | 212° |
| 2026-05-05 16:05 | 47.30663 | 7.50198 | 36011 ft | 418 kts | 212° |
| 2026-05-05 16:05 | 47.28241 | 7.47947 | 36224 ft | 418 kts | 212° |
| 2026-05-05 16:05 | 47.25771 | 7.45653 | 36414 ft | 418 kts | 212° |
| 2026-05-05 16:06 | 47.23308 | 7.43368 | 36621 ft | 418 kts | 212° |
| 2026-05-05 16:06 | 47.20854 | 7.41095 | 36809 ft | 418 kts | 212° |
| 2026-05-05 16:06 | 47.18461 | 7.38702 | 36982 ft | 418 kts | 218° |
| 2026-05-05 16:06 | 47.16228 | 7.35938 | 37143 ft | 418 kts | 223° |
| 2026-05-05 16:07 | 47.14218 | 7.32868 | 37321 ft | 418 kts | 229° |
| 2026-05-05 16:07 | 47.12395 | 7.29547 | 37465 ft | 419 kts | 231° |
| 2026-05-05 16:07 | 47.10589 | 7.26183 | 37609 ft | 419 kts | 231° |
| 2026-05-05 16:07 | 47.08778 | 7.22830 | 37747 ft | 419 kts | 230° |
| 2026-05-05 16:08 | 47.06962 | 7.19485 | 37876 ft | 419 kts | 230° |
| 2026-05-05 16:08 | 47.03330 | 7.12817 | 37877 ft | 418 kts | 230° |
| 2026-05-05 16:09 | 46.99701 | 7.06175 | 37874 ft | 418 kts | 230° |
| 2026-05-05 16:09 | 46.96069 | 6.99543 | 37886 ft | 417 kts | 230° |
| 2026-05-05 16:10 | 46.92424 | 6.92940 | 37883 ft | 417 kts | 228° |
| 2026-05-05 16:10 | 46.88239 | 6.87095 | 37888 ft | 417 kts | 219° |
| 2026-05-05 16:11 | 46.83741 | 6.81770 | 37884 ft | 416 kts | 219° |
| 2026-05-05 16:12 | 46.74793 | 6.71132 | 37886 ft | 416 kts | 219° |
| 2026-05-05 16:13 | 46.63589 | 6.57878 | 37891 ft | 416 kts | 219° |
| 2026-05-05 16:13 | 46.59296 | 6.52818 | 37887 ft | 416 kts | 219° |
| 2026-05-05 16:14 | 46.50319 | 6.42274 | 37887 ft | 416 kts | 219° |
| 2026-05-05 16:15 | 46.41323 | 6.31753 | 37888 ft | 415 kts | 219° |
| 2026-05-05 16:16 | 46.32343 | 6.21296 | 37884 ft | 413 kts | 219° |
| 2026-05-05 16:17 | 46.25302 | 6.14264 | 37886 ft | 415 kts | 205° |
| 2026-05-05 16:18 | 46.19708 | 6.11928 | 37887 ft | 420 kts | 191° |
| 2026-05-05 16:18 | 46.16858 | 6.11321 | 37883 ft | 420 kts | 192° |
| 2026-05-05 16:19 | 46.08210 | 6.09408 | 37886 ft | 418 kts | 192° |
| 2026-05-05 16:19 | 45.99598 | 6.07499 | 37885 ft | 416 kts | 192° |
| 2026-05-05 16:20 | 45.88147 | 6.04972 | 37883 ft | 415 kts | 192° |
| 2026-05-05 16:22 | 45.73854 | 6.01816 | 37887 ft | 415 kts | 192° |
| 2026-05-05 16:23 | 45.62438 | 5.99304 | 37886 ft | 415 kts | 192° |
| 2026-05-05 16:23 | 45.53888 | 5.97428 | 37884 ft | 413 kts | 193° |
| 2026-05-05 16:24 | 45.48204 | 5.96183 | 37886 ft | 414 kts | 193° |
| 2026-05-05 16:25 | 45.39827 | 5.93614 | 37882 ft | 409 kts | 196° |
| 2026-05-05 16:25 | 45.31521 | 5.91017 | 37882 ft | 410 kts | 196° |
| 2026-05-05 16:26 | 45.20370 | 5.87551 | 37880 ft | 410 kts | 196° |
| 2026-05-05 16:27 | 45.15192 | 5.85946 | 37880 ft | 409 kts | 196° |
| 2026-05-05 16:27 | 45.09611 | 5.84219 | 38069 ft | 411 kts | 196° |
| 2026-05-05 16:28 | 45.06820 | 5.83358 | 38201 ft | 411 kts | 196° |
| 2026-05-05 16:28 | 45.04043 | 5.82500 | 38352 ft | 411 kts | 196° |
| 2026-05-05 16:28 | 44.99392 | 5.81064 | 38597 ft | 411 kts | 196° |
| 2026-05-05 16:29 | 44.95717 | 5.79934 | 38747 ft | 411 kts | 196° |
| 2026-05-05 16:29 | 44.93815 | 5.79350 | 38813 ft | 411 kts | 196° |
| 2026-05-05 16:29 | 44.88211 | 5.77630 | 38886 ft | 411 kts | 196° |
| 2026-05-05 16:30 | 44.82629 | 5.75921 | 38895 ft | 410 kts | 196° |
| 2026-05-05 16:30 | 44.77042 | 5.74213 | 38889 ft | 410 kts | 196° |
| 2026-05-05 16:31 | 44.71456 | 5.72509 | 38889 ft | 411 kts | 196° |
| 2026-05-05 16:31 | 44.65869 | 5.70806 | 38895 ft | 410 kts | 196° |
| 2026-05-05 16:32 | 44.60301 | 5.69112 | 38894 ft | 410 kts | 196° |
| 2026-05-05 16:32 | 44.54708 | 5.67414 | 38892 ft | 411 kts | 196° |
| 2026-05-05 16:33 | 44.49124 | 5.65724 | 38903 ft | 411 kts | 196° |
| 2026-05-05 16:33 | 44.43535 | 5.64034 | 38892 ft | 411 kts | 196° |
| 2026-05-05 16:34 | 44.37977 | 5.62203 | 38896 ft | 409 kts | 200° |
| 2026-05-05 16:34 | 44.32652 | 5.59463 | 38898 ft | 408 kts | 205° |
| 2026-05-05 16:35 | 44.27380 | 5.56544 | 38896 ft | 407 kts | 205° |
| 2026-05-05 16:35 | 44.22099 | 5.53650 | 38889 ft | 408 kts | 205° |
| 2026-05-05 16:36 | 44.16827 | 5.50771 | 38896 ft | 408 kts | 205° |
| 2026-05-05 16:36 | 44.11574 | 5.47908 | 38891 ft | 408 kts | 205° |
| 2026-05-05 16:37 | 44.06285 | 5.45032 | 38893 ft | 408 kts | 205° |
| 2026-05-05 16:37 | 44.01004 | 5.42165 | 38885 ft | 408 kts | 205° |
| 2026-05-05 16:38 | 43.95720 | 5.39302 | 38896 ft | 408 kts | 205° |
| 2026-05-05 16:38 | 43.90427 | 5.36437 | 38890 ft | 408 kts | 205° |
| 2026-05-05 16:39 | 43.85140 | 5.33581 | 38903 ft | 408 kts | 205° |
| 2026-05-05 16:39 | 43.79846 | 5.30726 | 38901 ft | 408 kts | 205° |
| 2026-05-05 16:40 | 43.74590 | 5.27898 | 38907 ft | 408 kts | 205° |
| 2026-05-05 16:40 | 43.69302 | 5.25058 | 38904 ft | 407 kts | 205° |
| 2026-05-05 16:41 | 43.64016 | 5.22224 | 38910 ft | 407 kts | 205° |
| 2026-05-05 16:41 | 43.58733 | 5.19397 | 38907 ft | 407 kts | 205° |
| 2026-05-05 16:42 | 43.53455 | 5.16578 | 38912 ft | 407 kts | 205° |
| 2026-05-05 16:42 | 43.48179 | 5.13766 | 38908 ft | 406 kts | 205° |
| 2026-05-05 16:43 | 43.42905 | 5.10960 | 38912 ft | 406 kts | 205° |
| 2026-05-05 16:43 | 43.40304 | 5.09460 | 38910 ft | 404 kts | 209° |
| 2026-05-05 16:44 | 43.39570 | 5.08979 | 38912 ft | 403 kts | 210° |
| 2026-05-05 16:44 | 43.35473 | 5.05759 | 38911 ft | 399 kts | 217° |
| 2026-05-05 16:45 | 43.30928 | 5.01443 | 38910 ft | 399 kts | 218° |
| 2026-05-05 16:45 | 43.26333 | 4.97098 | 38904 ft | 398 kts | 218° |
| 2026-05-05 16:46 | 43.21788 | 4.92827 | 38902 ft | 398 kts | 217° |
| 2026-05-05 16:46 | 43.17193 | 4.88519 | 38898 ft | 398 kts | 218° |
| 2026-05-05 16:47 | 43.13026 | 4.84626 | 38860 ft | 378 kts | 217° |
| 2026-05-05 16:47 | 43.11144 | 4.82890 | 38799 ft | 361 kts | 217° |
| 2026-05-05 16:47 | 43.09945 | 4.81798 | 38746 ft | 351 kts | 217° |
| 2026-05-05 16:48 | 43.08208 | 4.80238 | 38646 ft | 337 kts | 217° |
| 2026-05-05 16:48 | 43.07963 | 4.80021 | 38624 ft | 335 kts | 217° |